sensor_id;sensor_type;location;lat;lon;timestamp;temperature;humidity
306;DHT22;137;48.578;9.180;2022-08-30T00:00:05;18.70;98.20
306;DHT22;137;48.578;9.180;2022-08-30T00:02:50;18.70;98.20
306;DHT22;137;48.578;9.180;2022-08-30T00:05:17;18.70;98.20
306;DHT22;137;48.578;9.180;2022-08-30T00:07:45;18.60;98.20
306;DHT22;137;48.578;9.180;2022-08-30T00:10:12;18.60;98.20
306;DHT22;137;48.578;9.180;2022-08-30T00:12:39;18.60;98.20
306;DHT22;137;48.578;9.180;2022-08-30T00:15:08;18.60;98.20
306;DHT22;137;48.578;9.180;2022-08-30T00:17:35;18.70;98.20
306;DHT22;137;48.578;9.180;2022-08-30T00:20:06;18.70;98.20
306;DHT22;137;48.578;9.180;2022-08-30T00:22:33;18.60;98.20
306;DHT22;137;48.578;9.180;2022-08-30T00:25:02;18.60;98.20
306;DHT22;137;48.578;9.180;2022-08-30T00:27:32;18.50;98.20
306;DHT22;137;48.578;9.180;2022-08-30T00:29:59;18.50;98.20
306;DHT22;137;48.578;9.180;2022-08-30T00:32:26;18.40;98.20
306;DHT22;137;48.578;9.180;2022-08-30T00:34:53;18.40;98.20
306;DHT22;137;48.578;9.180;2022-08-30T00:37:20;18.50;98.20
306;DHT22;137;48.578;9.180;2022-08-30T00:39:48;18.40;98.20
306;DHT22;137;48.578;9.180;2022-08-30T00:42:18;18.40;98.20
306;DHT22;137;48.578;9.180;2022-08-30T00:44:45;18.50;98.20
306;DHT22;137;48.578;9.180;2022-08-30T00:47:13;18.40;98.20
306;DHT22;137;48.578;9.180;2022-08-30T00:49:43;18.40;98.20
306;DHT22;137;48.578;9.180;2022-08-30T00:52:11;18.40;98.20
306;DHT22;137;48.578;9.180;2022-08-30T00:54:39;18.40;98.20
306;DHT22;137;48.578;9.180;2022-08-30T00:57:08;18.30;98.20
306;DHT22;137;48.578;9.180;2022-08-30T00:59:37;18.30;98.20
306;DHT22;137;48.578;9.180;2022-08-30T01:02:05;18.30;98.20
306;DHT22;137;48.578;9.180;2022-08-30T01:04:32;18.20;98.20
306;DHT22;137;48.578;9.180;2022-08-30T01:06:59;18.10;98.20
306;DHT22;137;48.578;9.180;2022-08-30T01:09:26;18.00;98.20
306;DHT22;137;48.578;9.180;2022-08-30T01:11:54;18.00;98.20
306;DHT22;137;48.578;9.180;2022-08-30T01:14:22;17.90;98.20
306;DHT22;137;48.578;9.180;2022-08-30T01:16:50;17.90;98.20
306;DHT22;137;48.578;9.180;2022-08-30T01:19:26;17.90;98.20
306;DHT22;137;48.578;9.180;2022-08-30T01:22:00;17.80;98.20
306;DHT22;137;48.578;9.180;2022-08-30T01:24:31;17.80;98.20
306;DHT22;137;48.578;9.180;2022-08-30T01:26:59;17.80;98.20
306;DHT22;137;48.578;9.180;2022-08-30T01:29:26;17.80;98.20
306;DHT22;137;48.578;9.180;2022-08-30T01:31:53;17.80;98.20
306;DHT22;137;48.578;9.180;2022-08-30T01:34:20;17.70;98.20
306;DHT22;137;48.578;9.180;2022-08-30T01:36:47;17.70;98.20
306;DHT22;137;48.578;9.180;2022-08-30T01:39:16;17.70;98.20
306;DHT22;137;48.578;9.180;2022-08-30T01:41:44;17.60;98.20
306;DHT22;137;48.578;9.180;2022-08-30T01:44:12;17.70;98.20
306;DHT22;137;48.578;9.180;2022-08-30T01:46:43;17.70;98.20
306;DHT22;137;48.578;9.180;2022-08-30T01:49:11;17.60;98.20
306;DHT22;137;48.578;9.180;2022-08-30T01:51:39;17.50;98.20
306;DHT22;137;48.578;9.180;2022-08-30T01:54:06;17.50;98.20
306;DHT22;137;48.578;9.180;2022-08-30T01:56:33;17.50;98.20
306;DHT22;137;48.578;9.180;2022-08-30T01:59:02;17.40;98.20
306;DHT22;137;48.578;9.180;2022-08-30T02:01:30;17.50;98.20
306;DHT22;137;48.578;9.180;2022-08-30T02:03:57;17.40;98.20
306;DHT22;137;48.578;9.180;2022-08-30T02:06:24;17.40;98.20
306;DHT22;137;48.578;9.180;2022-08-30T02:08:51;17.50;98.20
306;DHT22;137;48.578;9.180;2022-08-30T02:11:18;17.40;98.20
306;DHT22;137;48.578;9.180;2022-08-30T02:13:46;17.40;98.20
306;DHT22;137;48.578;9.180;2022-08-30T02:16:17;17.40;98.20
306;DHT22;137;48.578;9.180;2022-08-30T02:18:47;17.40;98.20
306;DHT22;137;48.578;9.180;2022-08-30T02:21:14;17.30;98.20
306;DHT22;137;48.578;9.180;2022-08-30T02:23:41;17.30;98.20
306;DHT22;137;48.578;9.180;2022-08-30T02:26:08;17.30;98.20
306;DHT22;137;48.578;9.180;2022-08-30T02:28:36;17.30;98.20
306;DHT22;137;48.578;9.180;2022-08-30T02:31:06;17.20;98.20
306;DHT22;137;48.578;9.180;2022-08-30T02:33:34;17.20;98.20
306;DHT22;137;48.578;9.180;2022-08-30T02:36:02;17.20;98.20
306;DHT22;137;48.578;9.180;2022-08-30T02:38:29;17.20;98.20
306;DHT22;137;48.578;9.180;2022-08-30T02:40:56;17.20;98.20
306;DHT22;137;48.578;9.180;2022-08-30T02:43:23;17.10;98.20
306;DHT22;137;48.578;9.180;2022-08-30T02:45:51;17.10;98.20
306;DHT22;137;48.578;9.180;2022-08-30T02:48:18;17.10;98.20
306;DHT22;137;48.578;9.180;2022-08-30T02:50:48;17.00;98.20
306;DHT22;137;48.578;9.180;2022-08-30T02:53:16;16.90;98.20
306;DHT22;137;48.578;9.180;2022-08-30T02:55:43;16.90;98.20
306;DHT22;137;48.578;9.180;2022-08-30T02:58:10;17.00;98.20
306;DHT22;137;48.578;9.180;2022-08-30T03:00:38;17.00;98.20
306;DHT22;137;48.578;9.180;2022-08-30T03:03:05;16.90;98.20
306;DHT22;137;48.578;9.180;2022-08-30T03:05:33;16.90;98.20
306;DHT22;137;48.578;9.180;2022-08-30T03:08:02;17.00;98.20
306;DHT22;137;48.578;9.180;2022-08-30T03:10:29;17.00;98.20
306;DHT22;137;48.578;9.180;2022-08-30T03:12:56;17.00;98.20
306;DHT22;137;48.578;9.180;2022-08-30T03:15:23;17.00;98.20
306;DHT22;137;48.578;9.180;2022-08-30T03:17:51;17.00;98.20
306;DHT22;137;48.578;9.180;2022-08-30T03:20:19;17.00;98.20
306;DHT22;137;48.578;9.180;2022-08-30T03:22:46;16.90;98.20
306;DHT22;137;48.578;9.180;2022-08-30T03:25:15;16.80;98.20
306;DHT22;137;48.578;9.180;2022-08-30T03:27:42;16.90;98.20
306;DHT22;137;48.578;9.180;2022-08-30T03:30:09;16.70;98.20
306;DHT22;137;48.578;9.180;2022-08-30T03:32:37;16.70;98.20
306;DHT22;137;48.578;9.180;2022-08-30T03:35:05;16.70;98.20
306;DHT22;137;48.578;9.180;2022-08-30T03:37:32;16.70;98.20
306;DHT22;137;48.578;9.180;2022-08-30T03:39:58;16.70;98.20
306;DHT22;137;48.578;9.180;2022-08-30T03:42:27;16.70;98.20
306;DHT22;137;48.578;9.180;2022-08-30T03:44:54;16.80;98.20
306;DHT22;137;48.578;9.180;2022-08-30T03:47:21;16.80;98.20
306;DHT22;137;48.578;9.180;2022-08-30T03:49:48;16.60;98.20
306;DHT22;137;48.578;9.180;2022-08-30T03:52:15;16.50;98.20
306;DHT22;137;48.578;9.180;2022-08-30T03:54:41;16.40;98.20
306;DHT22;137;48.578;9.180;2022-08-30T03:57:08;16.40;98.20
306;DHT22;137;48.578;9.180;2022-08-30T03:59:37;16.30;98.20
306;DHT22;137;48.578;9.180;2022-08-30T04:02:03;16.30;98.20
306;DHT22;137;48.578;9.180;2022-08-30T04:04:30;16.30;98.20
306;DHT22;137;48.578;9.180;2022-08-30T04:06:57;16.30;98.20
306;DHT22;137;48.578;9.180;2022-08-30T04:09:24;16.30;98.20
306;DHT22;137;48.578;9.180;2022-08-30T04:11:51;16.30;98.20
306;DHT22;137;48.578;9.180;2022-08-30T04:14:18;16.30;98.20
306;DHT22;137;48.578;9.180;2022-08-30T04:16:48;16.30;98.20
306;DHT22;137;48.578;9.180;2022-08-30T04:19:14;16.30;98.20
306;DHT22;137;48.578;9.180;2022-08-30T04:21:42;16.10;98.20
306;DHT22;137;48.578;9.180;2022-08-30T04:24:09;16.10;98.20
306;DHT22;137;48.578;9.180;2022-08-30T04:26:36;16.00;98.20
306;DHT22;137;48.578;9.180;2022-08-30T04:29:03;16.10;98.20
306;DHT22;137;48.578;9.180;2022-08-30T04:31:30;16.10;98.20
306;DHT22;137;48.578;9.180;2022-08-30T04:33:59;16.00;98.20
306;DHT22;137;48.578;9.180;2022-08-30T04:36:25;16.00;98.20
306;DHT22;137;48.578;9.180;2022-08-30T04:38:52;15.90;98.20
306;DHT22;137;48.578;9.180;2022-08-30T04:41:20;16.00;98.20
306;DHT22;137;48.578;9.180;2022-08-30T04:43:49;15.90;98.20
306;DHT22;137;48.578;9.180;2022-08-30T04:46:16;15.90;98.20
306;DHT22;137;48.578;9.180;2022-08-30T04:48:44;15.90;98.20
306;DHT22;137;48.578;9.180;2022-08-30T04:51:15;15.90;98.20
306;DHT22;137;48.578;9.180;2022-08-30T04:53:43;15.90;98.20
306;DHT22;137;48.578;9.180;2022-08-30T04:56:12;16.00;98.20
306;DHT22;137;48.578;9.180;2022-08-30T04:58:41;16.00;98.20
306;DHT22;137;48.578;9.180;2022-08-30T05:01:12;16.10;98.20
306;DHT22;137;48.578;9.180;2022-08-30T05:03:39;16.20;98.20
306;DHT22;137;48.578;9.180;2022-08-30T05:06:06;16.20;98.20
306;DHT22;137;48.578;9.180;2022-08-30T05:08:35;16.30;98.20
306;DHT22;137;48.578;9.180;2022-08-30T05:11:04;16.50;98.20
306;DHT22;137;48.578;9.180;2022-08-30T05:13:32;16.50;98.20
306;DHT22;137;48.578;9.180;2022-08-30T05:15:59;16.60;98.20
306;DHT22;137;48.578;9.180;2022-08-30T05:18:26;16.60;98.20
306;DHT22;137;48.578;9.180;2022-08-30T05:21:02;16.70;98.20
306;DHT22;137;48.578;9.180;2022-08-30T05:23:29;16.80;98.20
306;DHT22;137;48.578;9.180;2022-08-30T05:25:58;16.90;98.20
306;DHT22;137;48.578;9.180;2022-08-30T05:28:25;17.10;98.20
306;DHT22;137;48.578;9.180;2022-08-30T05:30:51;17.20;98.20
306;DHT22;137;48.578;9.180;2022-08-30T05:33:18;17.30;98.20
306;DHT22;137;48.578;9.180;2022-08-30T05:35:45;17.40;98.20
306;DHT22;137;48.578;9.180;2022-08-30T05:38:12;17.60;98.20
306;DHT22;137;48.578;9.180;2022-08-30T05:40:40;17.80;98.20
306;DHT22;137;48.578;9.180;2022-08-30T05:43:08;17.90;98.20
306;DHT22;137;48.578;9.180;2022-08-30T05:45:35;18.00;98.20
306;DHT22;137;48.578;9.180;2022-08-30T05:48:03;18.20;98.20
306;DHT22;137;48.578;9.180;2022-08-30T05:50:31;18.40;98.20
306;DHT22;137;48.578;9.180;2022-08-30T05:52:58;18.60;98.20
306;DHT22;137;48.578;9.180;2022-08-30T05:55:24;18.70;98.20
306;DHT22;137;48.578;9.180;2022-08-30T05:57:51;18.90;98.20
306;DHT22;137;48.578;9.180;2022-08-30T06:00:20;19.00;98.20
306;DHT22;137;48.578;9.180;2022-08-30T06:02:51;19.10;98.20
306;DHT22;137;48.578;9.180;2022-08-30T06:05:18;19.20;98.20
306;DHT22;137;48.578;9.180;2022-08-30T06:07:45;19.10;98.20
306;DHT22;137;48.578;9.180;2022-08-30T06:10:12;19.10;98.20
306;DHT22;137;48.578;9.180;2022-08-30T06:12:39;19.30;98.20
306;DHT22;137;48.578;9.180;2022-08-30T06:15:07;19.50;98.20
306;DHT22;137;48.578;9.180;2022-08-30T06:17:36;19.70;98.20
306;DHT22;137;48.578;9.180;2022-08-30T06:20:05;19.80;98.20
306;DHT22;137;48.578;9.180;2022-08-30T06:22:33;19.90;98.20
306;DHT22;137;48.578;9.180;2022-08-30T06:24:59;20.00;98.20
306;DHT22;137;48.578;9.180;2022-08-30T06:27:26;20.20;98.20
306;DHT22;137;48.578;9.180;2022-08-30T06:29:53;20.30;98.20
306;DHT22;137;48.578;9.180;2022-08-30T06:32:20;20.50;98.20
306;DHT22;137;48.578;9.180;2022-08-30T06:34:48;20.40;98.20
306;DHT22;137;48.578;9.180;2022-08-30T06:37:15;20.60;98.20
306;DHT22;137;48.578;9.180;2022-08-30T06:39:42;20.80;98.20
306;DHT22;137;48.578;9.180;2022-08-30T06:42:09;21.00;98.20
306;DHT22;137;48.578;9.180;2022-08-30T06:44:36;21.00;98.20
306;DHT22;137;48.578;9.180;2022-08-30T06:47:03;21.10;98.20
306;DHT22;137;48.578;9.180;2022-08-30T06:49:30;21.10;98.20
306;DHT22;137;48.578;9.180;2022-08-30T06:51:59;21.30;98.20
306;DHT22;137;48.578;9.180;2022-08-30T06:54:25;21.40;98.20
306;DHT22;137;48.578;9.180;2022-08-30T06:56:52;21.40;98.20
306;DHT22;137;48.578;9.180;2022-08-30T06:59:19;21.40;98.20
306;DHT22;137;48.578;9.180;2022-08-30T07:01:46;21.40;98.20
306;DHT22;137;48.578;9.180;2022-08-30T07:04:13;21.50;98.20
306;DHT22;137;48.578;9.180;2022-08-30T07:06:40;21.80;98.20
306;DHT22;137;48.578;9.180;2022-08-30T07:09:08;21.90;98.20
306;DHT22;137;48.578;9.180;2022-08-30T07:11:36;22.00;98.20
306;DHT22;137;48.578;9.180;2022-08-30T07:14:04;22.10;98.20
306;DHT22;137;48.578;9.180;2022-08-30T07:16:31;22.20;98.20
306;DHT22;137;48.578;9.180;2022-08-30T07:18:58;22.40;98.20
306;DHT22;137;48.578;9.180;2022-08-30T07:21:27;22.50;98.20
306;DHT22;137;48.578;9.180;2022-08-30T07:23:56;22.60;98.20
306;DHT22;137;48.578;9.180;2022-08-30T07:26:27;22.60;98.20
306;DHT22;137;48.578;9.180;2022-08-30T07:28:54;22.80;98.20
306;DHT22;137;48.578;9.180;2022-08-30T07:31:22;23.00;98.20
306;DHT22;137;48.578;9.180;2022-08-30T07:33:49;23.10;98.20
306;DHT22;137;48.578;9.180;2022-08-30T07:36:17;23.30;98.20
306;DHT22;137;48.578;9.180;2022-08-30T07:38:44;23.30;98.20
306;DHT22;137;48.578;9.180;2022-08-30T07:41:16;23.50;98.20
306;DHT22;137;48.578;9.180;2022-08-30T07:43:45;23.70;98.20
306;DHT22;137;48.578;9.180;2022-08-30T07:46:12;23.80;98.20
306;DHT22;137;48.578;9.180;2022-08-30T07:48:39;24.00;98.20
306;DHT22;137;48.578;9.180;2022-08-30T07:51:09;24.20;98.20
306;DHT22;137;48.578;9.180;2022-08-30T07:53:36;24.20;98.20
306;DHT22;137;48.578;9.180;2022-08-30T07:56:03;24.40;98.20
306;DHT22;137;48.578;9.180;2022-08-30T07:58:31;24.20;98.20
306;DHT22;137;48.578;9.180;2022-08-30T08:00:59;24.40;98.20
306;DHT22;137;48.578;9.180;2022-08-30T08:03:26;24.60;98.20
306;DHT22;137;48.578;9.180;2022-08-30T08:06:09;24.90;98.20
306;DHT22;137;48.578;9.180;2022-08-30T08:08:36;25.10;98.20
306;DHT22;137;48.578;9.180;2022-08-30T08:11:10;25.00;98.20
306;DHT22;137;48.578;9.180;2022-08-30T08:13:39;25.20;98.20
306;DHT22;137;48.578;9.180;2022-08-30T08:16:07;25.40;98.20
306;DHT22;137;48.578;9.180;2022-08-30T08:18:34;25.70;98.20
306;DHT22;137;48.578;9.180;2022-08-30T08:21:03;25.80;98.20
306;DHT22;137;48.578;9.180;2022-08-30T08:23:32;26.00;98.20
306;DHT22;137;48.578;9.180;2022-08-30T08:25:59;26.00;98.20
306;DHT22;137;48.578;9.180;2022-08-30T08:28:26;26.20;98.20
306;DHT22;137;48.578;9.180;2022-08-30T08:30:53;26.10;98.20
306;DHT22;137;48.578;9.180;2022-08-30T08:33:21;25.80;98.20
306;DHT22;137;48.578;9.180;2022-08-30T08:35:48;25.70;98.20
306;DHT22;137;48.578;9.180;2022-08-30T08:38:15;25.80;98.20
306;DHT22;137;48.578;9.180;2022-08-30T08:40:48;25.80;98.20
306;DHT22;137;48.578;9.180;2022-08-30T08:43:19;25.90;98.20
306;DHT22;137;48.578;9.180;2022-08-30T08:45:55;26.10;98.20
306;DHT22;137;48.578;9.180;2022-08-30T08:48:29;26.40;98.20
306;DHT22;137;48.578;9.180;2022-08-30T08:50:57;26.50;98.20
306;DHT22;137;48.578;9.180;2022-08-30T08:53:46;26.60;98.20
306;DHT22;137;48.578;9.180;2022-08-30T08:56:17;26.50;98.20
306;DHT22;137;48.578;9.180;2022-08-30T08:58:48;26.40;98.20
306;DHT22;137;48.578;9.180;2022-08-30T09:01:18;26.70;98.20
306;DHT22;137;48.578;9.180;2022-08-30T09:03:47;26.80;98.20
306;DHT22;137;48.578;9.180;2022-08-30T09:06:24;27.00;98.20
306;DHT22;137;48.578;9.180;2022-08-30T09:08:53;27.10;98.20
306;DHT22;137;48.578;9.180;2022-08-30T09:11:23;27.20;98.20
306;DHT22;137;48.578;9.180;2022-08-30T09:13:51;27.30;98.20
306;DHT22;137;48.578;9.180;2022-08-30T09:16:48;27.40;98.20
306;DHT22;137;48.578;9.180;2022-08-30T09:19:45;27.60;98.20
306;DHT22;137;48.578;9.180;2022-08-30T09:22:25;27.60;98.20
306;DHT22;137;48.578;9.180;2022-08-30T09:25:00;27.80;98.20
306;DHT22;137;48.578;9.180;2022-08-30T09:27:31;28.00;98.20
306;DHT22;137;48.578;9.180;2022-08-30T09:30:03;27.70;98.20
306;DHT22;137;48.578;9.180;2022-08-30T09:32:36;27.50;98.20
306;DHT22;137;48.578;9.180;2022-08-30T09:35:11;27.90;98.20
306;DHT22;137;48.578;9.180;2022-08-30T09:37:46;28.00;98.20
306;DHT22;137;48.578;9.180;2022-08-30T09:40:23;28.10;98.20
306;DHT22;137;48.578;9.180;2022-08-30T09:43:05;28.20;98.20
306;DHT22;137;48.578;9.180;2022-08-30T09:45:38;28.60;98.20
306;DHT22;137;48.578;9.180;2022-08-30T09:48:28;28.80;98.20
306;DHT22;137;48.578;9.180;2022-08-30T09:54:03;28.60;98.20
306;DHT22;137;48.578;9.180;2022-08-30T09:56:42;28.60;98.20
306;DHT22;137;48.578;9.180;2022-08-30T09:59:36;28.80;98.20
306;DHT22;137;48.578;9.180;2022-08-30T10:02:25;29.10;98.20
306;DHT22;137;48.578;9.180;2022-08-30T10:05:01;29.40;98.20
306;DHT22;137;48.578;9.180;2022-08-30T10:07:36;29.30;98.20
306;DHT22;137;48.578;9.180;2022-08-30T10:10:32;29.30;98.20
306;DHT22;137;48.578;9.180;2022-08-30T10:13:25;29.00;98.20
306;DHT22;137;48.578;9.180;2022-08-30T10:15:59;29.00;98.20
306;DHT22;137;48.578;9.180;2022-08-30T10:18:53;29.20;98.20
306;DHT22;137;48.578;9.180;2022-08-30T10:21:36;29.20;98.20
306;DHT22;137;48.578;9.180;2022-08-30T10:24:10;28.90;98.20
306;DHT22;137;48.578;9.180;2022-08-30T10:26:43;29.10;98.20
306;DHT22;137;48.578;9.180;2022-08-30T10:29:21;29.30;98.20
306;DHT22;137;48.578;9.180;2022-08-30T10:31:52;29.60;98.20
306;DHT22;137;48.578;9.180;2022-08-30T10:34:25;29.70;98.20
306;DHT22;137;48.578;9.180;2022-08-30T10:36:56;29.90;98.20
306;DHT22;137;48.578;9.180;2022-08-30T10:39:28;29.60;98.20
306;DHT22;137;48.578;9.180;2022-08-30T10:42:15;29.90;98.20
306;DHT22;137;48.578;9.180;2022-08-30T10:44:48;29.90;98.20
306;DHT22;137;48.578;9.180;2022-08-30T10:47:24;30.00;98.20
306;DHT22;137;48.578;9.180;2022-08-30T10:50:00;30.20;98.20
306;DHT22;137;48.578;9.180;2022-08-30T10:52:34;30.30;98.20
306;DHT22;137;48.578;9.180;2022-08-30T10:55:10;30.10;98.20
306;DHT22;137;48.578;9.180;2022-08-30T10:57:39;30.20;98.20
306;DHT22;137;48.578;9.180;2022-08-30T11:00:12;30.50;98.20
306;DHT22;137;48.578;9.180;2022-08-30T11:03:12;30.60;98.20
306;DHT22;137;48.578;9.180;2022-08-30T11:06:18;30.20;98.20
306;DHT22;137;48.578;9.180;2022-08-30T11:12:32;30.50;98.20
306;DHT22;137;48.578;9.180;2022-08-30T11:15:14;31.00;98.20
306;DHT22;137;48.578;9.180;2022-08-30T11:17:53;30.80;98.20
306;DHT22;137;48.578;9.180;2022-08-30T11:20:37;30.90;98.20
306;DHT22;137;48.578;9.180;2022-08-30T11:23:24;30.70;98.20
306;DHT22;137;48.578;9.180;2022-08-30T11:25:56;30.60;98.20
306;DHT22;137;48.578;9.180;2022-08-30T11:29:14;30.70;98.20
306;DHT22;137;48.578;9.180;2022-08-30T11:31:57;30.80;98.20
306;DHT22;137;48.578;9.180;2022-08-30T11:35:05;30.80;98.10
306;DHT22;137;48.578;9.180;2022-08-30T11:37:39;31.30;98.00
306;DHT22;137;48.578;9.180;2022-08-30T11:40:10;32.00;94.80
306;DHT22;137;48.578;9.180;2022-08-30T11:42:42;32.30;94.60
306;DHT22;137;48.578;9.180;2022-08-30T11:45:43;32.90;94.40
306;DHT22;137;48.578;9.180;2022-08-30T11:48:42;32.80;92.70
306;DHT22;137;48.578;9.180;2022-08-30T11:51:36;32.00;93.30
306;DHT22;137;48.578;9.180;2022-08-30T11:54:24;31.90;95.60
306;DHT22;137;48.578;9.180;2022-08-30T11:57:00;31.70;95.60
306;DHT22;137;48.578;9.180;2022-08-30T11:59:52;32.00;94.70
306;DHT22;137;48.578;9.180;2022-08-30T12:02:46;32.00;93.80
306;DHT22;137;48.578;9.180;2022-08-30T12:08:54;30.90;95.20
306;DHT22;137;48.578;9.180;2022-08-30T12:14:37;31.50;94.60
306;DHT22;137;48.578;9.180;2022-08-30T12:17:21;32.00;93.00
306;DHT22;137;48.578;9.180;2022-08-30T12:20:26;32.20;91.40
306;DHT22;137;48.578;9.180;2022-08-30T12:22:55;31.70;92.80
306;DHT22;137;48.578;9.180;2022-08-30T12:25:27;32.00;92.70
306;DHT22;137;48.578;9.180;2022-08-30T12:28:26;32.70;91.70
306;DHT22;137;48.578;9.180;2022-08-30T12:31:11;32.50;91.00
306;DHT22;137;48.578;9.180;2022-08-30T12:33:45;31.50;91.90
306;DHT22;137;48.578;9.180;2022-08-30T12:36:30;31.40;93.50
306;DHT22;137;48.578;9.180;2022-08-30T12:39:16;32.00;92.30
306;DHT22;137;48.578;9.180;2022-08-30T12:41:47;32.00;91.00
306;DHT22;137;48.578;9.180;2022-08-30T12:44:19;32.00;91.40
306;DHT22;137;48.578;9.180;2022-08-30T12:46:56;32.00;90.50
306;DHT22;137;48.578;9.180;2022-08-30T12:49:29;32.10;91.10
306;DHT22;137;48.578;9.180;2022-08-30T12:54:53;31.90;91.20
306;DHT22;137;48.578;9.180;2022-08-30T12:57:40;32.80;91.70
306;DHT22;137;48.578;9.180;2022-08-30T13:00:08;33.00;89.40
306;DHT22;137;48.578;9.180;2022-08-30T13:02:45;32.90;90.20
306;DHT22;137;48.578;9.180;2022-08-30T13:05:44;32.90;88.90
306;DHT22;137;48.578;9.180;2022-08-30T13:08:20;32.20;89.80
306;DHT22;137;48.578;9.180;2022-08-30T13:10:57;32.00;91.10
306;DHT22;137;48.578;9.180;2022-08-30T13:13:30;31.70;91.20
306;DHT22;137;48.578;9.180;2022-08-30T13:16:10;31.70;91.60
306;DHT22;137;48.578;9.180;2022-08-30T13:18:38;32.00;90.10
306;DHT22;137;48.578;9.180;2022-08-30T13:21:10;31.80;90.60
306;DHT22;137;48.578;9.180;2022-08-30T13:23:40;32.10;91.60
306;DHT22;137;48.578;9.180;2022-08-30T13:26:12;32.00;91.80
306;DHT22;137;48.578;9.180;2022-08-30T13:28:45;32.20;91.20
306;DHT22;137;48.578;9.180;2022-08-30T13:31:13;32.10;89.70
306;DHT22;137;48.578;9.180;2022-08-30T13:33:40;32.20;90.40
306;DHT22;137;48.578;9.180;2022-08-30T13:36:10;32.30;90.20
306;DHT22;137;48.578;9.180;2022-08-30T13:38:38;32.50;90.10
306;DHT22;137;48.578;9.180;2022-08-30T13:41:05;32.40;90.40
306;DHT22;137;48.578;9.180;2022-08-30T13:43:37;32.60;89.70
306;DHT22;137;48.578;9.180;2022-08-30T13:46:04;32.70;89.40
306;DHT22;137;48.578;9.180;2022-08-30T13:48:31;32.30;88.90
306;DHT22;137;48.578;9.180;2022-08-30T13:50:59;31.90;89.90
306;DHT22;137;48.578;9.180;2022-08-30T13:53:27;31.80;90.30
306;DHT22;137;48.578;9.180;2022-08-30T13:55:54;32.00;89.20
306;DHT22;137;48.578;9.180;2022-08-30T13:58:27;32.40;88.30
306;DHT22;137;48.578;9.180;2022-08-30T14:00:58;32.70;88.60
306;DHT22;137;48.578;9.180;2022-08-30T14:03:25;32.30;89.60
306;DHT22;137;48.578;9.180;2022-08-30T14:05:52;31.60;89.90
306;DHT22;137;48.578;9.180;2022-08-30T14:08:21;31.50;90.30
306;DHT22;137;48.578;9.180;2022-08-30T14:10:49;31.30;92.00
306;DHT22;137;48.578;9.180;2022-08-30T14:13:16;30.90;92.00
306;DHT22;137;48.578;9.180;2022-08-30T14:15:43;30.70;92.40
306;DHT22;137;48.578;9.180;2022-08-30T14:18:13;30.60;92.70
306;DHT22;137;48.578;9.180;2022-08-30T14:20:40;30.30;92.90
306;DHT22;137;48.578;9.180;2022-08-30T14:23:07;30.50;93.30
306;DHT22;137;48.578;9.180;2022-08-30T14:25:34;30.70;92.30
306;DHT22;137;48.578;9.180;2022-08-30T14:28:01;30.70;92.70
306;DHT22;137;48.578;9.180;2022-08-30T14:30:28;30.60;93.70
306;DHT22;137;48.578;9.180;2022-08-30T14:32:55;30.40;92.70
306;DHT22;137;48.578;9.180;2022-08-30T14:35:23;30.60;93.60
306;DHT22;137;48.578;9.180;2022-08-30T14:37:50;30.20;93.00
306;DHT22;137;48.578;9.180;2022-08-30T14:40:17;30.30;93.30
306;DHT22;137;48.578;9.180;2022-08-30T14:42:44;30.40;92.80
306;DHT22;137;48.578;9.180;2022-08-30T14:45:11;30.40;94.10
306;DHT22;137;48.578;9.180;2022-08-30T14:47:38;30.60;93.40
306;DHT22;137;48.578;9.180;2022-08-30T14:50:08;30.80;93.40
306;DHT22;137;48.578;9.180;2022-08-30T14:52:36;30.70;92.30
306;DHT22;137;48.578;9.180;2022-08-30T14:55:04;30.60;92.60
306;DHT22;137;48.578;9.180;2022-08-30T14:57:32;30.60;93.60
306;DHT22;137;48.578;9.180;2022-08-30T14:59:59;30.50;93.80
306;DHT22;137;48.578;9.180;2022-08-30T15:02:26;30.20;94.10
306;DHT22;137;48.578;9.180;2022-08-30T15:04:53;30.00;93.70
306;DHT22;137;48.578;9.180;2022-08-30T15:07:20;29.80;94.90
306;DHT22;137;48.578;9.180;2022-08-30T15:09:48;29.90;94.70
306;DHT22;137;48.578;9.180;2022-08-30T15:12:15;30.10;93.00
306;DHT22;137;48.578;9.180;2022-08-30T15:14:42;30.00;93.50
306;DHT22;137;48.578;9.180;2022-08-30T15:17:08;30.00;93.80
306;DHT22;137;48.578;9.180;2022-08-30T15:19:37;29.70;93.90
306;DHT22;137;48.578;9.180;2022-08-30T15:22:05;29.70;94.30
306;DHT22;137;48.578;9.180;2022-08-30T15:24:33;29.40;95.80
306;DHT22;137;48.578;9.180;2022-08-30T15:27:02;29.40;95.10
306;DHT22;137;48.578;9.180;2022-08-30T15:29:30;29.40;94.70
306;DHT22;137;48.578;9.180;2022-08-30T15:31:57;29.30;95.10
306;DHT22;137;48.578;9.180;2022-08-30T15:34:24;29.60;96.20
306;DHT22;137;48.578;9.180;2022-08-30T15:36:51;29.50;94.50
306;DHT22;137;48.578;9.180;2022-08-30T15:39:17;29.50;95.50
306;DHT22;137;48.578;9.180;2022-08-30T15:41:45;29.30;96.30
306;DHT22;137;48.578;9.180;2022-08-30T15:44:14;29.20;95.80
306;DHT22;137;48.578;9.180;2022-08-30T15:46:43;29.20;95.40
306;DHT22;137;48.578;9.180;2022-08-30T15:49:15;29.30;96.30
306;DHT22;137;48.578;9.180;2022-08-30T15:51:44;29.50;95.40
306;DHT22;137;48.578;9.180;2022-08-30T15:54:14;29.50;95.90
306;DHT22;137;48.578;9.180;2022-08-30T15:56:44;29.70;95.10
306;DHT22;137;48.578;9.180;2022-08-30T15:59:12;29.60;94.90
306;DHT22;137;48.578;9.180;2022-08-30T16:01:43;29.50;94.50
306;DHT22;137;48.578;9.180;2022-08-30T16:04:10;29.20;95.50
306;DHT22;137;48.578;9.180;2022-08-30T16:06:38;28.90;96.50
306;DHT22;137;48.578;9.180;2022-08-30T16:09:08;29.00;96.60
306;DHT22;137;48.578;9.180;2022-08-30T16:11:38;28.90;97.20
306;DHT22;137;48.578;9.180;2022-08-30T16:14:08;28.60;96.90
306;DHT22;137;48.578;9.180;2022-08-30T16:16:38;28.60;97.60
306;DHT22;137;48.578;9.180;2022-08-30T16:19:09;28.30;97.40
306;DHT22;137;48.578;9.180;2022-08-30T16:21:37;28.10;98.20
306;DHT22;137;48.578;9.180;2022-08-30T16:24:08;28.00;98.20
306;DHT22;137;48.578;9.180;2022-08-30T16:26:35;28.00;98.20
306;DHT22;137;48.578;9.180;2022-08-30T16:29:03;27.90;98.10
306;DHT22;137;48.578;9.180;2022-08-30T16:31:33;27.70;98.20
306;DHT22;137;48.578;9.180;2022-08-30T16:34:01;27.60;98.20
306;DHT22;137;48.578;9.180;2022-08-30T16:36:31;27.50;98.20
306;DHT22;137;48.578;9.180;2022-08-30T16:39:02;27.40;98.20
306;DHT22;137;48.578;9.180;2022-08-30T16:41:33;27.40;98.20
306;DHT22;137;48.578;9.180;2022-08-30T16:44:02;27.50;98.20
306;DHT22;137;48.578;9.180;2022-08-30T16:46:34;27.50;98.20
306;DHT22;137;48.578;9.180;2022-08-30T16:49:03;27.50;98.20
306;DHT22;137;48.578;9.180;2022-08-30T16:51:35;27.30;98.20
306;DHT22;137;48.578;9.180;2022-08-30T16:54:06;27.30;98.20
306;DHT22;137;48.578;9.180;2022-08-30T16:56:36;27.20;98.20
306;DHT22;137;48.578;9.180;2022-08-30T16:59:05;27.10;98.20
306;DHT22;137;48.578;9.180;2022-08-30T17:01:35;27.20;98.20
306;DHT22;137;48.578;9.180;2022-08-30T17:04:06;27.20;98.20
306;DHT22;137;48.578;9.180;2022-08-30T17:06:37;27.10;98.20
306;DHT22;137;48.578;9.180;2022-08-30T17:09:09;26.90;98.20
306;DHT22;137;48.578;9.180;2022-08-30T17:11:37;26.70;98.20
306;DHT22;137;48.578;9.180;2022-08-30T17:14:06;26.50;98.20